Naubinway, MI

2:43 PM EST on February 14, 2016 (GMT -0500)
GarLyn Zoo | | Change Station
CLOSE
Current Station
Personal Weather Station
Location: Naubinway, MI
Elevation: 584 ft
Nearby Weather Stations

Elev 584 ft 46.09 °N, 85.32 °W | Updated 1 minute ago

Overcast
Overcast
19.4 °F
Feels Like 14 °F
N
3.8
Wind Variable Wind from South

Today
High -- | Low -- °F
--% Chance of Precip.
Yesterday
High -- | Low -- °F
Precip. -- in
Pressure 30.22 in
Visibility 5.0 miles
Clouds Mostly Cloudy 1900 ft
Overcast 2500 ft
Windchill 14 °F
Dew Point 13 °F
Humidity 76%
Rainfall 0.00 in
Snow Depth Not available.
7:46 AM 6:05 PM
Waxing Crescent, 44% visible
METAR KERY 141934Z AUTO 15013G17KT 5SM -SN BKN019 OVC025 M09/M11 A3022 RMK AO2 T10861114
Pressure 30.22 in
Visibility 5.0 miles
Clouds Mostly Cloudy 1900 ft
Overcast 2500 ft
Windchill 14 °F
Dew Point 13 °F
Humidity 76%
Rainfall 0.00 in
Snow Depth Not available.
7:46 AM 6:05 PM
Waxing Crescent, 44% visible
METAR KERY 141934Z AUTO 15013G17KT 5SM -SN BKN019 OVC025 M09/M11 A3022 RMK AO2 T10861114

10-Day Weather Forecast

Almanac

Astronomy

Feb. 14, 2016 Rise Set
Actual Time
Civil Twilight
Nautical Twilight
Astronomical Twilight
Moon
Length of Visible Light
Length of Day
Tomorrow will be .
, % of the Moon is Illuminated

Today's Extremes

State Highs State Lows

Community

WunderPhotos

Upload Photos

1,892,879 photos uploaded!

WunderBlog® & News

Nearby

Air Quality

  Air Quality AQ Index Pollutant
Not available.

Snow Depth

Station Depth Elevation

Earthquake Activity

City Distance Mag. Time & Date
Minimum magnitude displayed is 2.5.

Coastal Water Temperatures

Place Temperature

Stations

Nearby Weather Stations

Station Location Temp. Windchill Dew Point Humidity Wind Precip. Elev Updated Type
                   

Watches & Warnings

There are currently no watches in effect.